sensor_id;sensor_type;location;lat;lon;timestamp;temperature;humidity
23385;DHT22;11865;45.394;10.978;2022-12-10T00:01:39;6.90;99.90
23385;DHT22;11865;45.394;10.978;2022-12-10T00:04:07;6.90;99.90
23385;DHT22;11865;45.394;10.978;2022-12-10T00:06:36;6.90;99.90
23385;DHT22;11865;45.394;10.978;2022-12-10T00:09:07;6.80;99.90
23385;DHT22;11865;45.394;10.978;2022-12-10T00:11:36;6.90;99.90
23385;DHT22;11865;45.394;10.978;2022-12-10T00:14:03;6.90;99.90
23385;DHT22;11865;45.394;10.978;2022-12-10T00:16:31;6.90;99.90
23385;DHT22;11865;45.394;10.978;2022-12-10T00:19:00;6.90;99.90
23385;DHT22;11865;45.394;10.978;2022-12-10T00:21:30;6.80;99.90
23385;DHT22;11865;45.394;10.978;2022-12-10T00:23:59;6.90;99.90
23385;DHT22;11865;45.394;10.978;2022-12-10T00:26:32;6.90;99.90
23385;DHT22;11865;45.394;10.978;2022-12-10T00:29:03;6.70;99.90
23385;DHT22;11865;45.394;10.978;2022-12-10T00:31:33;6.80;99.90
23385;DHT22;11865;45.394;10.978;2022-12-10T00:34:06;6.90;99.90
23385;DHT22;11865;45.394;10.978;2022-12-10T00:36:42;7.00;99.90
23385;DHT22;11865;45.394;10.978;2022-12-10T00:39:13;6.90;99.90
23385;DHT22;11865;45.394;10.978;2022-12-10T00:41:41;7.00;99.90
23385;DHT22;11865;45.394;10.978;2022-12-10T00:44:08;6.90;99.90
23385;DHT22;11865;45.394;10.978;2022-12-10T00:46:38;6.90;99.90
23385;DHT22;11865;45.394;10.978;2022-12-10T00:49:08;7.00;99.90
23385;DHT22;11865;45.394;10.978;2022-12-10T00:51:36;6.90;99.90
23385;DHT22;11865;45.394;10.978;2022-12-10T00:54:04;6.90;99.90
23385;DHT22;11865;45.394;10.978;2022-12-10T00:56:33;6.90;99.90
23385;DHT22;11865;45.394;10.978;2022-12-10T00:59:01;7.00;99.90
23385;DHT22;11865;45.394;10.978;2022-12-10T01:01:35;6.90;99.90
23385;DHT22;11865;45.394;10.978;2022-12-10T01:04:06;6.90;99.90
23385;DHT22;11865;45.394;10.978;2022-12-10T01:06:36;7.00;99.90
23385;DHT22;11865;45.394;10.978;2022-12-10T01:09:06;6.90;99.90
23385;DHT22;11865;45.394;10.978;2022-12-10T01:11:36;6.90;99.90
23385;DHT22;11865;45.394;10.978;2022-12-10T01:14:06;7.00;99.90
23385;DHT22;11865;45.394;10.978;2022-12-10T01:16:35;7.00;99.90
23385;DHT22;11865;45.394;10.978;2022-12-10T01:19:03;7.00;99.90
23385;DHT22;11865;45.394;10.978;2022-12-10T01:21:34;7.10;99.90
23385;DHT22;11865;45.394;10.978;2022-12-10T01:24:02;7.00;99.90
23385;DHT22;11865;45.394;10.978;2022-12-10T01:26:33;7.00;99.90
23385;DHT22;11865;45.394;10.978;2022-12-10T01:29:02;6.80;99.90
23385;DHT22;11865;45.394;10.978;2022-12-10T01:31:32;7.00;99.90
23385;DHT22;11865;45.394;10.978;2022-12-10T01:34:01;7.00;99.90
23385;DHT22;11865;45.394;10.978;2022-12-10T01:36:37;7.10;99.90
23385;DHT22;11865;45.394;10.978;2022-12-10T01:39:06;7.00;99.90
23385;DHT22;11865;45.394;10.978;2022-12-10T01:41:38;6.90;99.90
23385;DHT22;11865;45.394;10.978;2022-12-10T01:46:41;6.80;99.90
23385;DHT22;11865;45.394;10.978;2022-12-10T01:49:20;6.90;99.90
23385;DHT22;11865;45.394;10.978;2022-12-10T01:51:51;7.00;99.90
23385;DHT22;11865;45.394;10.978;2022-12-10T01:54:31;7.00;99.90
23385;DHT22;11865;45.394;10.978;2022-12-10T01:57:06;6.90;99.90
23385;DHT22;11865;45.394;10.978;2022-12-10T01:59:35;7.00;99.90
23385;DHT22;11865;45.394;10.978;2022-12-10T02:07:55;6.80;99.90
23385;DHT22;11865;45.394;10.978;2022-12-10T02:13:39;7.00;99.90
23385;DHT22;11865;45.394;10.978;2022-12-10T02:16:14;7.00;99.90
23385;DHT22;11865;45.394;10.978;2022-12-10T02:21:40;7.00;99.90
23385;DHT22;11865;45.394;10.978;2022-12-10T02:24:12;7.00;99.90
23385;DHT22;11865;45.394;10.978;2022-12-10T02:27:04;6.90;99.90
23385;DHT22;11865;45.394;10.978;2022-12-10T02:29:33;7.10;99.90
23385;DHT22;11865;45.394;10.978;2022-12-10T02:32:09;7.10;99.90
23385;DHT22;11865;45.394;10.978;2022-12-10T02:34:47;7.20;99.90
23385;DHT22;11865;45.394;10.978;2022-12-10T02:37:22;7.20;99.90
23385;DHT22;11865;45.394;10.978;2022-12-10T02:39:57;7.10;99.90
23385;DHT22;11865;45.394;10.978;2022-12-10T02:42:29;7.40;99.90
23385;DHT22;11865;45.394;10.978;2022-12-10T02:44:58;7.40;99.90
23385;DHT22;11865;45.394;10.978;2022-12-10T02:47:26;7.30;99.90
23385;DHT22;11865;45.394;10.978;2022-12-10T02:49:56;7.20;99.90
23385;DHT22;11865;45.394;10.978;2022-12-10T02:52:26;7.00;99.90
23385;DHT22;11865;45.394;10.978;2022-12-10T02:54:54;7.10;99.90
23385;DHT22;11865;45.394;10.978;2022-12-10T02:57:31;7.10;99.90
23385;DHT22;11865;45.394;10.978;2022-12-10T03:00:06;7.00;99.90
23385;DHT22;11865;45.394;10.978;2022-12-10T03:05:48;7.20;99.90
23385;DHT22;11865;45.394;10.978;2022-12-10T03:08:25;7.10;99.90
23385;DHT22;11865;45.394;10.978;2022-12-10T03:11:19;6.90;99.90
23385;DHT22;11865;45.394;10.978;2022-12-10T03:16:43;6.90;99.90
23385;DHT22;11865;45.394;10.978;2022-12-10T03:19:15;6.90;99.90
23385;DHT22;11865;45.394;10.978;2022-12-10T03:21:44;7.00;99.90
23385;DHT22;11865;45.394;10.978;2022-12-10T03:24:15;7.00;99.90
23385;DHT22;11865;45.394;10.978;2022-12-10T03:26:45;7.00;99.90
23385;DHT22;11865;45.394;10.978;2022-12-10T03:29:28;7.00;99.90
23385;DHT22;11865;45.394;10.978;2022-12-10T03:31:58;7.00;99.90
23385;DHT22;11865;45.394;10.978;2022-12-10T03:34:27;7.00;99.90
23385;DHT22;11865;45.394;10.978;2022-12-10T03:36:55;6.90;99.90
23385;DHT22;11865;45.394;10.978;2022-12-10T03:39:24;7.10;99.90
23385;DHT22;11865;45.394;10.978;2022-12-10T03:41:51;6.90;99.90
23385;DHT22;11865;45.394;10.978;2022-12-10T03:44:30;6.80;99.90
23385;DHT22;11865;45.394;10.978;2022-12-10T03:46:58;6.80;99.90
23385;DHT22;11865;45.394;10.978;2022-12-10T03:49:25;6.70;99.90
23385;DHT22;11865;45.394;10.978;2022-12-10T03:51:53;6.60;99.90
23385;DHT22;11865;45.394;10.978;2022-12-10T03:54:21;6.70;99.90
23385;DHT22;11865;45.394;10.978;2022-12-10T03:56:48;6.60;99.90
23385;DHT22;11865;45.394;10.978;2022-12-10T03:59:16;6.90;99.90
23385;DHT22;11865;45.394;10.978;2022-12-10T04:01:43;6.90;99.90
23385;DHT22;11865;45.394;10.978;2022-12-10T04:04:11;7.00;99.90
23385;DHT22;11865;45.394;10.978;2022-12-10T04:06:40;7.10;99.90
23385;DHT22;11865;45.394;10.978;2022-12-10T04:09:11;7.10;99.90
23385;DHT22;11865;45.394;10.978;2022-12-10T04:11:39;7.20;99.90
23385;DHT22;11865;45.394;10.978;2022-12-10T04:14:08;7.20;99.90
23385;DHT22;11865;45.394;10.978;2022-12-10T04:16:54;7.10;99.90
23385;DHT22;11865;45.394;10.978;2022-12-10T04:19:22;7.20;99.90
23385;DHT22;11865;45.394;10.978;2022-12-10T04:21:50;7.00;99.90
23385;DHT22;11865;45.394;10.978;2022-12-10T04:24:36;6.90;99.90
23385;DHT22;11865;45.394;10.978;2022-12-10T04:27:40;7.00;99.90
23385;DHT22;11865;45.394;10.978;2022-12-10T04:30:11;7.00;99.90
23385;DHT22;11865;45.394;10.978;2022-12-10T04:32:39;7.20;99.90
23385;DHT22;11865;45.394;10.978;2022-12-10T04:35:07;7.20;99.90
23385;DHT22;11865;45.394;10.978;2022-12-10T04:37:35;7.10;99.90
23385;DHT22;11865;45.394;10.978;2022-12-10T04:40:03;6.90;99.90
23385;DHT22;11865;45.394;10.978;2022-12-10T04:42:31;6.80;99.90
23385;DHT22;11865;45.394;10.978;2022-12-10T04:44:59;6.70;99.90
23385;DHT22;11865;45.394;10.978;2022-12-10T04:47:26;6.70;99.90
23385;DHT22;11865;45.394;10.978;2022-12-10T04:49:54;6.80;99.90
23385;DHT22;11865;45.394;10.978;2022-12-10T04:52:21;6.80;99.90
23385;DHT22;11865;45.394;10.978;2022-12-10T04:54:49;6.80;99.90
23385;DHT22;11865;45.394;10.978;2022-12-10T04:57:16;6.80;99.90
23385;DHT22;11865;45.394;10.978;2022-12-10T04:59:44;6.70;99.90
23385;DHT22;11865;45.394;10.978;2022-12-10T05:02:11;6.70;99.90
23385;DHT22;11865;45.394;10.978;2022-12-10T05:04:39;6.70;99.90
23385;DHT22;11865;45.394;10.978;2022-12-10T05:07:06;6.70;99.90
23385;DHT22;11865;45.394;10.978;2022-12-10T05:09:34;6.70;99.90
23385;DHT22;11865;45.394;10.978;2022-12-10T05:12:03;6.80;99.90
23385;DHT22;11865;45.394;10.978;2022-12-10T05:14:30;6.80;99.90
23385;DHT22;11865;45.394;10.978;2022-12-10T05:16:58;6.80;99.90
23385;DHT22;11865;45.394;10.978;2022-12-10T05:19:25;6.80;99.90
23385;DHT22;11865;45.394;10.978;2022-12-10T05:21:53;6.80;99.90
23385;DHT22;11865;45.394;10.978;2022-12-10T05:24:40;6.80;99.90
23385;DHT22;11865;45.394;10.978;2022-12-10T05:27:07;6.80;99.90
23385;DHT22;11865;45.394;10.978;2022-12-10T05:29:34;6.80;99.90
23385;DHT22;11865;45.394;10.978;2022-12-10T05:32:03;6.90;99.90
23385;DHT22;11865;45.394;10.978;2022-12-10T05:34:31;6.80;99.90
23385;DHT22;11865;45.394;10.978;2022-12-10T05:36:59;6.90;99.90
23385;DHT22;11865;45.394;10.978;2022-12-10T05:39:26;6.90;99.90
23385;DHT22;11865;45.394;10.978;2022-12-10T05:41:54;6.90;99.90
23385;DHT22;11865;45.394;10.978;2022-12-10T05:44:21;6.90;99.90
23385;DHT22;11865;45.394;10.978;2022-12-10T05:46:49;6.90;99.90
23385;DHT22;11865;45.394;10.978;2022-12-10T05:49:16;6.80;99.90
23385;DHT22;11865;45.394;10.978;2022-12-10T05:51:44;6.80;99.90
23385;DHT22;11865;45.394;10.978;2022-12-10T05:54:11;6.90;99.90
23385;DHT22;11865;45.394;10.978;2022-12-10T05:56:39;6.90;99.90
23385;DHT22;11865;45.394;10.978;2022-12-10T05:59:07;6.90;99.90
23385;DHT22;11865;45.394;10.978;2022-12-10T06:01:42;6.70;99.90
23385;DHT22;11865;45.394;10.978;2022-12-10T06:04:10;6.90;99.90
23385;DHT22;11865;45.394;10.978;2022-12-10T06:06:39;6.80;99.90
23385;DHT22;11865;45.394;10.978;2022-12-10T06:09:11;6.80;99.90
23385;DHT22;11865;45.394;10.978;2022-12-10T06:11:39;6.80;99.90
23385;DHT22;11865;45.394;10.978;2022-12-10T06:14:09;6.80;99.90
23385;DHT22;11865;45.394;10.978;2022-12-10T06:16:38;6.90;99.90
23385;DHT22;11865;45.394;10.978;2022-12-10T06:19:06;6.80;99.90
23385;DHT22;11865;45.394;10.978;2022-12-10T06:21:33;6.80;99.90
23385;DHT22;11865;45.394;10.978;2022-12-10T06:24:02;6.90;99.90
23385;DHT22;11865;45.394;10.978;2022-12-10T06:26:30;6.80;99.90
23385;DHT22;11865;45.394;10.978;2022-12-10T06:28:57;6.90;99.90
23385;DHT22;11865;45.394;10.978;2022-12-10T06:31:25;6.90;99.90
23385;DHT22;11865;45.394;10.978;2022-12-10T06:33:52;6.90;99.90
23385;DHT22;11865;45.394;10.978;2022-12-10T06:36:21;6.80;99.90
23385;DHT22;11865;45.394;10.978;2022-12-10T06:38:49;6.90;99.90
23385;DHT22;11865;45.394;10.978;2022-12-10T06:41:17;7.00;99.90
23385;DHT22;11865;45.394;10.978;2022-12-10T06:43:47;7.00;99.90
23385;DHT22;11865;45.394;10.978;2022-12-10T06:46:17;6.90;99.90
23385;DHT22;11865;45.394;10.978;2022-12-10T06:48:46;6.90;99.90
23385;DHT22;11865;45.394;10.978;2022-12-10T06:51:13;6.90;99.90
23385;DHT22;11865;45.394;10.978;2022-12-10T06:53:41;6.80;99.90
23385;DHT22;11865;45.394;10.978;2022-12-10T06:56:14;6.90;99.90
23385;DHT22;11865;45.394;10.978;2022-12-10T06:58:42;6.90;99.90
23385;DHT22;11865;45.394;10.978;2022-12-10T07:01:19;6.90;99.90
23385;DHT22;11865;45.394;10.978;2022-12-10T07:03:54;6.80;99.90
23385;DHT22;11865;45.394;10.978;2022-12-10T07:06:24;6.90;99.90
23385;DHT22;11865;45.394;10.978;2022-12-10T07:08:52;7.00;99.90
23385;DHT22;11865;45.394;10.978;2022-12-10T07:11:21;7.00;99.90
23385;DHT22;11865;45.394;10.978;2022-12-10T07:13:50;7.00;99.90
23385;DHT22;11865;45.394;10.978;2022-12-10T07:16:24;6.90;99.90
23385;DHT22;11865;45.394;10.978;2022-12-10T07:18:54;6.90;99.90
23385;DHT22;11865;45.394;10.978;2022-12-10T07:21:24;7.00;99.90
23385;DHT22;11865;45.394;10.978;2022-12-10T07:23:54;7.10;99.90
23385;DHT22;11865;45.394;10.978;2022-12-10T07:26:25;7.20;99.90
23385;DHT22;11865;45.394;10.978;2022-12-10T07:28:53;7.00;99.90
23385;DHT22;11865;45.394;10.978;2022-12-10T07:31:21;7.00;99.90
23385;DHT22;11865;45.394;10.978;2022-12-10T07:33:51;7.10;99.90
23385;DHT22;11865;45.394;10.978;2022-12-10T07:36:20;7.10;99.90
23385;DHT22;11865;45.394;10.978;2022-12-10T07:38:50;7.20;99.90
23385;DHT22;11865;45.394;10.978;2022-12-10T07:41:18;7.20;99.90
23385;DHT22;11865;45.394;10.978;2022-12-10T07:43:46;7.10;99.90
23385;DHT22;11865;45.394;10.978;2022-12-10T07:46:26;7.10;99.90
23385;DHT22;11865;45.394;10.978;2022-12-10T07:48:54;7.10;99.90
23385;DHT22;11865;45.394;10.978;2022-12-10T07:51:22;7.10;99.90
23385;DHT22;11865;45.394;10.978;2022-12-10T07:53:53;7.20;99.90
23385;DHT22;11865;45.394;10.978;2022-12-10T07:56:22;7.20;99.90
23385;DHT22;11865;45.394;10.978;2022-12-10T07:58:51;7.20;99.90
23385;DHT22;11865;45.394;10.978;2022-12-10T08:01:24;7.10;99.90
23385;DHT22;11865;45.394;10.978;2022-12-10T08:03:53;7.20;99.90
23385;DHT22;11865;45.394;10.978;2022-12-10T08:06:26;7.20;99.90
23385;DHT22;11865;45.394;10.978;2022-12-10T08:08:54;7.40;99.90
23385;DHT22;11865;45.394;10.978;2022-12-10T08:11:22;7.40;99.90
23385;DHT22;11865;45.394;10.978;2022-12-10T08:13:50;7.60;99.90
23385;DHT22;11865;45.394;10.978;2022-12-10T08:16:25;7.60;99.90
23385;DHT22;11865;45.394;10.978;2022-12-10T08:18:55;7.60;99.90
23385;DHT22;11865;45.394;10.978;2022-12-10T08:21:26;7.70;99.90
23385;DHT22;11865;45.394;10.978;2022-12-10T08:23:54;7.70;99.90
23385;DHT22;11865;45.394;10.978;2022-12-10T08:26:25;7.80;99.90
23385;DHT22;11865;45.394;10.978;2022-12-10T08:28:54;7.80;99.90
23385;DHT22;11865;45.394;10.978;2022-12-10T08:31:22;7.90;99.90
23385;DHT22;11865;45.394;10.978;2022-12-10T08:33:51;7.80;99.90
23385;DHT22;11865;45.394;10.978;2022-12-10T08:36:19;7.90;99.90
23385;DHT22;11865;45.394;10.978;2022-12-10T08:38:47;8.00;99.90
23385;DHT22;11865;45.394;10.978;2022-12-10T08:41:19;8.00;99.90
23385;DHT22;11865;45.394;10.978;2022-12-10T08:43:47;8.10;99.90
23385;DHT22;11865;45.394;10.978;2022-12-10T08:46:15;8.10;99.90
23385;DHT22;11865;45.394;10.978;2022-12-10T08:48:43;8.10;99.90
23385;DHT22;11865;45.394;10.978;2022-12-10T08:51:13;8.00;99.90
23385;DHT22;11865;45.394;10.978;2022-12-10T08:53:41;7.90;99.90
23385;DHT22;11865;45.394;10.978;2022-12-10T08:56:09;7.90;99.90
23385;DHT22;11865;45.394;10.978;2022-12-10T08:58:38;7.90;99.90
23385;DHT22;11865;45.394;10.978;2022-12-10T09:01:07;7.80;99.90
23385;DHT22;11865;45.394;10.978;2022-12-10T09:03:36;7.90;99.90
23385;DHT22;11865;45.394;10.978;2022-12-10T09:06:05;7.90;99.90
23385;DHT22;11865;45.394;10.978;2022-12-10T09:08:34;8.00;99.90
23385;DHT22;11865;45.394;10.978;2022-12-10T09:13:34;8.00;99.90
23385;DHT22;11865;45.394;10.978;2022-12-10T09:16:01;8.00;99.90
23385;DHT22;11865;45.394;10.978;2022-12-10T09:18:29;7.90;99.90
23385;DHT22;11865;45.394;10.978;2022-12-10T09:20:56;7.90;99.90
23385;DHT22;11865;45.394;10.978;2022-12-10T09:23:24;7.90;99.90
23385;DHT22;11865;45.394;10.978;2022-12-10T09:25:51;7.90;99.90
23385;DHT22;11865;45.394;10.978;2022-12-10T09:28:19;7.90;99.90
23385;DHT22;11865;45.394;10.978;2022-12-10T09:30:55;7.90;99.90
23385;DHT22;11865;45.394;10.978;2022-12-10T09:33:24;7.80;99.90
23385;DHT22;11865;45.394;10.978;2022-12-10T09:35:52;7.90;99.90
23385;DHT22;11865;45.394;10.978;2022-12-10T09:38:20;7.90;99.90
23385;DHT22;11865;45.394;10.978;2022-12-10T09:43:48;7.90;99.90
23385;DHT22;11865;45.394;10.978;2022-12-10T09:46:20;7.80;99.90
23385;DHT22;11865;45.394;10.978;2022-12-10T09:51:37;8.00;99.90
23385;DHT22;11865;45.394;10.978;2022-12-10T09:56:43;8.00;99.90
23385;DHT22;11865;45.394;10.978;2022-12-10T10:01:48;8.10;99.90
23385;DHT22;11865;45.394;10.978;2022-12-10T10:04:17;8.20;99.90
23385;DHT22;11865;45.394;10.978;2022-12-10T10:06:45;8.20;99.90
23385;DHT22;11865;45.394;10.978;2022-12-10T10:09:14;8.00;99.90
23385;DHT22;11865;45.394;10.978;2022-12-10T10:11:42;8.10;99.90
23385;DHT22;11865;45.394;10.978;2022-12-10T10:14:15;8.30;99.90
23385;DHT22;11865;45.394;10.978;2022-12-10T10:17:03;8.30;99.90
23385;DHT22;11865;45.394;10.978;2022-12-10T10:19:35;8.50;99.90
23385;DHT22;11865;45.394;10.978;2022-12-10T10:22:05;8.50;99.90
23385;DHT22;11865;45.394;10.978;2022-12-10T10:24:39;8.60;99.90
23385;DHT22;11865;45.394;10.978;2022-12-10T10:27:23;8.40;99.90
23385;DHT22;11865;45.394;10.978;2022-12-10T10:29:52;8.50;99.90
23385;DHT22;11865;45.394;10.978;2022-12-10T10:35:03;8.40;99.90
23385;DHT22;11865;45.394;10.978;2022-12-10T10:37:41;8.40;99.90
23385;DHT22;11865;45.394;10.978;2022-12-10T10:40:42;8.40;99.90
23385;DHT22;11865;45.394;10.978;2022-12-10T10:43:38;8.30;99.90
23385;DHT22;11865;45.394;10.978;2022-12-10T10:46:14;8.50;99.90
23385;DHT22;11865;45.394;10.978;2022-12-10T10:48:43;8.50;99.90
23385;DHT22;11865;45.394;10.978;2022-12-10T10:56:13;8.50;99.90
23385;DHT22;11865;45.394;10.978;2022-12-10T11:01:45;8.40;99.90
23385;DHT22;11865;45.394;10.978;2022-12-10T11:04:14;8.40;99.90
23385;DHT22;11865;45.394;10.978;2022-12-10T11:06:43;8.50;99.90
23385;DHT22;11865;45.394;10.978;2022-12-10T11:09:21;8.60;99.90
23385;DHT22;11865;45.394;10.978;2022-12-10T11:11:51;8.50;99.90
23385;DHT22;11865;45.394;10.978;2022-12-10T11:14:59;8.50;99.90
23385;DHT22;11865;45.394;10.978;2022-12-10T11:17:21;8.40;99.90
23385;DHT22;11865;45.394;10.978;2022-12-10T11:20:18;8.50;99.90
23385;DHT22;11865;45.394;10.978;2022-12-10T11:23:10;8.50;99.90
23385;DHT22;11865;45.394;10.978;2022-12-10T11:28:40;8.50;99.90
23385;DHT22;11865;45.394;10.978;2022-12-10T11:53:36;8.70;99.90
23385;DHT22;11865;45.394;10.978;2022-12-10T11:56:35;8.60;99.90
23385;DHT22;11865;45.394;10.978;2022-12-10T11:59:23;8.40;99.90
23385;DHT22;11865;45.394;10.978;2022-12-10T12:02:51;8.50;99.90
23385;DHT22;11865;45.394;10.978;2022-12-10T12:08:31;8.50;99.90
23385;DHT22;11865;45.394;10.978;2022-12-10T12:14:24;8.40;99.90
23385;DHT22;11865;45.394;10.978;2022-12-10T12:19:43;8.40;99.90
23385;DHT22;11865;45.394;10.978;2022-12-10T12:22:36;8.40;99.90
23385;DHT22;11865;45.394;10.978;2022-12-10T12:25:32;8.50;99.90
23385;DHT22;11865;45.394;10.978;2022-12-10T12:28:14;8.60;99.90
23385;DHT22;11865;45.394;10.978;2022-12-10T12:30:53;8.50;99.90
23385;DHT22;11865;45.394;10.978;2022-12-10T12:33:28;8.50;99.90
23385;DHT22;11865;45.394;10.978;2022-12-10T12:36:07;8.60;99.90
23385;DHT22;11865;45.394;10.978;2022-12-10T12:41:13;8.50;99.90
23385;DHT22;11865;45.394;10.978;2022-12-10T12:43:59;8.70;99.90
23385;DHT22;11865;45.394;10.978;2022-12-10T12:46:38;8.60;99.90
23385;DHT22;11865;45.394;10.978;2022-12-10T12:49:27;8.70;99.90
23385;DHT22;11865;45.394;10.978;2022-12-10T12:54:41;9.00;99.90
23385;DHT22;11865;45.394;10.978;2022-12-10T12:59:58;8.90;99.90
23385;DHT22;11865;45.394;10.978;2022-12-10T13:05:29;9.30;99.90
23385;DHT22;11865;45.394;10.978;2022-12-10T13:13:40;9.10;99.90
23385;DHT22;11865;45.394;10.978;2022-12-10T13:23:26;9.20;99.90
23385;DHT22;11865;45.394;10.978;2022-12-10T13:25:16;9.20;99.90
23385;DHT22;11865;45.394;10.978;2022-12-10T13:27:57;9.10;99.90
23385;DHT22;11865;45.394;10.978;2022-12-10T13:30:35;9.20;99.90
23385;DHT22;11865;45.394;10.978;2022-12-10T13:33:19;9.30;99.90
23385;DHT22;11865;45.394;10.978;2022-12-10T13:35:58;9.50;99.90
23385;DHT22;11865;45.394;10.978;2022-12-10T13:39:46;9.30;99.90
23385;DHT22;11865;45.394;10.978;2022-12-10T13:50:06;9.30;99.90
23385;DHT22;11865;45.394;10.978;2022-12-10T14:06:42;9.00;99.90
23385;DHT22;11865;45.394;10.978;2022-12-10T14:09:21;9.10;99.90
23385;DHT22;11865;45.394;10.978;2022-12-10T14:11:57;9.10;99.90
23385;DHT22;11865;45.394;10.978;2022-12-10T14:14:30;9.00;99.90
23385;DHT22;11865;45.394;10.978;2022-12-10T14:17:05;8.90;99.90
23385;DHT22;11865;45.394;10.978;2022-12-10T14:19:34;8.80;99.90
23385;DHT22;11865;45.394;10.978;2022-12-10T14:22:07;8.80;99.90
23385;DHT22;11865;45.394;10.978;2022-12-10T14:24:38;8.90;99.90
23385;DHT22;11865;45.394;10.978;2022-12-10T14:27:13;8.90;99.90
23385;DHT22;11865;45.394;10.978;2022-12-10T14:29:49;8.90;99.90
23385;DHT22;11865;45.394;10.978;2022-12-10T14:32:29;9.10;99.90
23385;DHT22;11865;45.394;10.978;2022-12-10T14:34:58;9.10;99.90
23385;DHT22;11865;45.394;10.978;2022-12-10T14:37:30;9.20;99.90
23385;DHT22;11865;45.394;10.978;2022-12-10T14:42:48;9.20;99.90
23385;DHT22;11865;45.394;10.978;2022-12-10T14:45:16;9.10;99.90
23385;DHT22;11865;45.394;10.978;2022-12-10T14:47:44;9.00;99.90
23385;DHT22;11865;45.394;10.978;2022-12-10T14:50:17;8.80;99.90
23385;DHT22;11865;45.394;10.978;2022-12-10T14:52:50;8.80;99.90
23385;DHT22;11865;45.394;10.978;2022-12-10T14:55:21;8.90;99.90
23385;DHT22;11865;45.394;10.978;2022-12-10T14:57:56;8.80;99.90
23385;DHT22;11865;45.394;10.978;2022-12-10T15:00:24;8.80;99.90
23385;DHT22;11865;45.394;10.978;2022-12-10T15:03:00;8.70;99.90
23385;DHT22;11865;45.394;10.978;2022-12-10T15:05:30;8.70;99.90
23385;DHT22;11865;45.394;10.978;2022-12-10T15:08:04;8.70;99.90
23385;DHT22;11865;45.394;10.978;2022-12-10T15:10:36;8.60;99.90
23385;DHT22;11865;45.394;10.978;2022-12-10T15:13:06;8.60;99.90
23385;DHT22;11865;45.394;10.978;2022-12-10T15:15:38;8.60;99.90
23385;DHT22;11865;45.394;10.978;2022-12-10T15:28:35;8.50;99.90
23385;DHT22;11865;45.394;10.978;2022-12-10T15:31:22;8.70;99.90
23385;DHT22;11865;45.394;10.978;2022-12-10T15:33:56;8.60;99.90
23385;DHT22;11865;45.394;10.978;2022-12-10T15:36:36;8.70;99.90
23385;DHT22;11865;45.394;10.978;2022-12-10T15:41:49;8.50;99.90
23385;DHT22;11865;45.394;10.978;2022-12-10T15:44:30;8.60;99.90
23385;DHT22;11865;45.394;10.978;2022-12-10T15:49:39;8.60;99.90
23385;DHT22;11865;45.394;10.978;2022-12-10T15:52:22;8.50;99.90
23385;DHT22;11865;45.394;10.978;2022-12-10T15:54:50;8.40;99.90
23385;DHT22;11865;45.394;10.978;2022-12-10T15:57:28;8.40;99.90
23385;DHT22;11865;45.394;10.978;2022-12-10T15:59:58;8.40;99.90
23385;DHT22;11865;45.394;10.978;2022-12-10T16:04:59;8.30;99.90
23385;DHT22;11865;45.394;10.978;2022-12-10T16:07:27;8.30;99.90
23385;DHT22;11865;45.394;10.978;2022-12-10T16:09:54;8.40;99.90
23385;DHT22;11865;45.394;10.978;2022-12-10T16:12:22;8.30;99.90
23385;DHT22;11865;45.394;10.978;2022-12-10T16:14:51;8.30;99.90
23385;DHT22;11865;45.394;10.978;2022-12-10T16:17:19;8.20;99.90
23385;DHT22;11865;45.394;10.978;2022-12-10T16:19:47;8.20;99.90
23385;DHT22;11865;45.394;10.978;2022-12-10T16:22:15;8.30;99.90
23385;DHT22;11865;45.394;10.978;2022-12-10T16:24:42;8.30;99.90
23385;DHT22;11865;45.394;10.978;2022-12-10T16:27:13;8.20;99.90
23385;DHT22;11865;45.394;10.978;2022-12-10T16:29:42;8.20;99.90
23385;DHT22;11865;45.394;10.978;2022-12-10T16:32:10;8.20;99.90
23385;DHT22;11865;45.394;10.978;2022-12-10T16:34:39;8.20;99.90
23385;DHT22;11865;45.394;10.978;2022-12-10T16:37:09;8.20;99.90
23385;DHT22;11865;45.394;10.978;2022-12-10T16:39:37;8.20;99.90
23385;DHT22;11865;45.394;10.978;2022-12-10T16:42:04;8.20;99.90
23385;DHT22;11865;45.394;10.978;2022-12-10T16:44:32;8.20;99.90
23385;DHT22;11865;45.394;10.978;2022-12-10T16:46:59;8.20;99.90
23385;DHT22;11865;45.394;10.978;2022-12-10T16:49:27;8.20;99.90
23385;DHT22;11865;45.394;10.978;2022-12-10T16:51:54;8.20;99.90
23385;DHT22;11865;45.394;10.978;2022-12-10T16:54:22;8.20;99.90
23385;DHT22;11865;45.394;10.978;2022-12-10T16:56:49;8.20;99.90
23385;DHT22;11865;45.394;10.978;2022-12-10T16:59:17;8.20;99.90
23385;DHT22;11865;45.394;10.978;2022-12-10T17:01:44;8.10;99.90
23385;DHT22;11865;45.394;10.978;2022-12-10T17:04:12;8.20;99.90
23385;DHT22;11865;45.394;10.978;2022-12-10T17:06:40;8.20;99.90
23385;DHT22;11865;45.394;10.978;2022-12-10T17:09:07;8.20;99.90
23385;DHT22;11865;45.394;10.978;2022-12-10T17:11:39;8.20;99.90
23385;DHT22;11865;45.394;10.978;2022-12-10T17:14:22;8.10;99.90
23385;DHT22;11865;45.394;10.978;2022-12-10T17:16:51;8.10;99.90
23385;DHT22;11865;45.394;10.978;2022-12-10T17:19:19;8.10;99.90
23385;DHT22;11865;45.394;10.978;2022-12-10T17:21:47;8.10;99.90
23385;DHT22;11865;45.394;10.978;2022-12-10T17:24:14;8.10;99.90
23385;DHT22;11865;45.394;10.978;2022-12-10T17:26:45;8.10;99.90
23385;DHT22;11865;45.394;10.978;2022-12-10T17:29:16;8.10;99.90
23385;DHT22;11865;45.394;10.978;2022-12-10T17:31:45;8.10;99.90
23385;DHT22;11865;45.394;10.978;2022-12-10T17:34:13;8.00;99.90
23385;DHT22;11865;45.394;10.978;2022-12-10T17:36:41;8.00;99.90
23385;DHT22;11865;45.394;10.978;2022-12-10T17:39:17;8.00;99.90
23385;DHT22;11865;45.394;10.978;2022-12-10T17:41:49;7.90;99.90
23385;DHT22;11865;45.394;10.978;2022-12-10T17:44:17;8.00;99.90
23385;DHT22;11865;45.394;10.978;2022-12-10T17:46:45;8.00;99.90
23385;DHT22;11865;45.394;10.978;2022-12-10T17:49:14;8.10;99.90
23385;DHT22;11865;45.394;10.978;2022-12-10T17:51:42;8.10;99.90
23385;DHT22;11865;45.394;10.978;2022-12-10T17:54:10;8.10;99.90
23385;DHT22;11865;45.394;10.978;2022-12-10T17:56:38;8.00;99.90
23385;DHT22;11865;45.394;10.978;2022-12-10T17:59:06;8.00;99.90
23385;DHT22;11865;45.394;10.978;2022-12-10T18:01:33;7.90;99.90
23385;DHT22;11865;45.394;10.978;2022-12-10T18:04:01;8.00;99.90
23385;DHT22;11865;45.394;10.978;2022-12-10T18:06:29;7.90;99.90
23385;DHT22;11865;45.394;10.978;2022-12-10T18:08:59;8.00;99.90
23385;DHT22;11865;45.394;10.978;2022-12-10T18:11:29;7.90;99.90
23385;DHT22;11865;45.394;10.978;2022-12-10T18:13:57;7.90;99.90
23385;DHT22;11865;45.394;10.978;2022-12-10T18:16:29;7.80;99.90
23385;DHT22;11865;45.394;10.978;2022-12-10T18:18:59;7.80;99.90
23385;DHT22;11865;45.394;10.978;2022-12-10T18:21:27;7.90;99.90
23385;DHT22;11865;45.394;10.978;2022-12-10T18:23:54;7.80;99.90